sensor_id;sensor_type;location;lat;lon;timestamp;temperature;humidity
76878;DHT22;65843;50.692;12.844;2022-12-24T00:00:14;18.50;63.70
76878;DHT22;65843;50.692;12.844;2022-12-24T00:01:15;18.50;63.90
76878;DHT22;65843;50.692;12.844;2022-12-24T00:02:16;18.50;64.10
76878;DHT22;65843;50.692;12.844;2022-12-24T00:03:16;18.50;64.00
76878;DHT22;65843;50.692;12.844;2022-12-24T00:04:17;18.50;64.00
76878;DHT22;65843;50.692;12.844;2022-12-24T00:05:18;18.50;64.00
76878;DHT22;65843;50.692;12.844;2022-12-24T00:06:20;18.50;64.10
76878;DHT22;65843;50.692;12.844;2022-12-24T00:07:21;18.50;64.20
76878;DHT22;65843;50.692;12.844;2022-12-24T00:08:22;18.50;64.00
76878;DHT22;65843;50.692;12.844;2022-12-24T00:09:23;18.50;64.10
76878;DHT22;65843;50.692;12.844;2022-12-24T00:10:24;18.50;64.40
76878;DHT22;65843;50.692;12.844;2022-12-24T00:11:25;18.50;64.30
76878;DHT22;65843;50.692;12.844;2022-12-24T00:12:26;18.50;64.30
76878;DHT22;65843;50.692;12.844;2022-12-24T00:13:26;18.50;64.00
76878;DHT22;65843;50.692;12.844;2022-12-24T00:14:27;18.50;64.10
76878;DHT22;65843;50.692;12.844;2022-12-24T00:15:28;18.50;64.20
76878;DHT22;65843;50.692;12.844;2022-12-24T00:16:29;18.50;64.30
76878;DHT22;65843;50.692;12.844;2022-12-24T00:17:30;18.50;64.40
76878;DHT22;65843;50.692;12.844;2022-12-24T00:18:31;18.50;64.30
76878;DHT22;65843;50.692;12.844;2022-12-24T00:19:32;18.50;64.30
76878;DHT22;65843;50.692;12.844;2022-12-24T00:20:32;18.50;64.30
76878;DHT22;65843;50.692;12.844;2022-12-24T00:21:33;18.50;64.30
76878;DHT22;65843;50.692;12.844;2022-12-24T00:22:34;18.50;64.10
76878;DHT22;65843;50.692;12.844;2022-12-24T00:23:35;18.50;64.30
76878;DHT22;65843;50.692;12.844;2022-12-24T00:24:36;18.50;64.10
76878;DHT22;65843;50.692;12.844;2022-12-24T00:25:37;18.50;63.70
76878;DHT22;65843;50.692;12.844;2022-12-24T00:26:38;18.50;63.90
76878;DHT22;65843;50.692;12.844;2022-12-24T00:27:38;18.50;64.10
76878;DHT22;65843;50.692;12.844;2022-12-24T00:28:39;18.50;64.30
76878;DHT22;65843;50.692;12.844;2022-12-24T00:29:40;18.50;64.40
76878;DHT22;65843;50.692;12.844;2022-12-24T00:30:41;18.50;64.10
76878;DHT22;65843;50.692;12.844;2022-12-24T00:31:42;18.50;64.00
76878;DHT22;65843;50.692;12.844;2022-12-24T00:32:43;18.50;64.40
76878;DHT22;65843;50.692;12.844;2022-12-24T00:33:44;18.50;64.10
76878;DHT22;65843;50.692;12.844;2022-12-24T00:34:45;18.50;64.20
76878;DHT22;65843;50.692;12.844;2022-12-24T00:35:48;18.50;64.40
76878;DHT22;65843;50.692;12.844;2022-12-24T00:36:49;18.50;64.30
76878;DHT22;65843;50.692;12.844;2022-12-24T00:37:50;18.50;64.60
76878;DHT22;65843;50.692;12.844;2022-12-24T00:38:51;18.50;64.30
76878;DHT22;65843;50.692;12.844;2022-12-24T00:39:52;18.50;64.60
76878;DHT22;65843;50.692;12.844;2022-12-24T00:41:02;18.50;64.40
76878;DHT22;65843;50.692;12.844;2022-12-24T00:42:03;18.50;64.90
76878;DHT22;65843;50.692;12.844;2022-12-24T00:43:04;18.50;64.70
76878;DHT22;65843;50.692;12.844;2022-12-24T00:44:06;18.50;64.80
76878;DHT22;65843;50.692;12.844;2022-12-24T00:45:10;18.50;65.00
76878;DHT22;65843;50.692;12.844;2022-12-24T00:46:11;18.50;65.00
76878;DHT22;65843;50.692;12.844;2022-12-24T00:47:12;18.50;65.10
76878;DHT22;65843;50.692;12.844;2022-12-24T00:48:13;18.50;64.70
76878;DHT22;65843;50.692;12.844;2022-12-24T00:49:14;18.50;65.20
76878;DHT22;65843;50.692;12.844;2022-12-24T00:50:15;18.50;65.10
76878;DHT22;65843;50.692;12.844;2022-12-24T00:51:16;18.50;65.00
76878;DHT22;65843;50.692;12.844;2022-12-24T00:52:17;18.50;65.00
76878;DHT22;65843;50.692;12.844;2022-12-24T00:53:18;18.50;64.70
76878;DHT22;65843;50.692;12.844;2022-12-24T00:54:18;18.60;65.00
76878;DHT22;65843;50.692;12.844;2022-12-24T00:55:19;18.60;65.00
76878;DHT22;65843;50.692;12.844;2022-12-24T00:56:20;18.60;65.20
76878;DHT22;65843;50.692;12.844;2022-12-24T00:57:21;18.60;65.00
76878;DHT22;65843;50.692;12.844;2022-12-24T00:58:22;18.60;65.10
76878;DHT22;65843;50.692;12.844;2022-12-24T00:59:23;18.60;65.00
76878;DHT22;65843;50.692;12.844;2022-12-24T01:00:24;18.60;64.90
76878;DHT22;65843;50.692;12.844;2022-12-24T01:01:25;18.60;64.70
76878;DHT22;65843;50.692;12.844;2022-12-24T01:02:26;18.60;64.80
76878;DHT22;65843;50.692;12.844;2022-12-24T01:03:27;18.60;64.50
76878;DHT22;65843;50.692;12.844;2022-12-24T01:04:36;18.60;64.80
76878;DHT22;65843;50.692;12.844;2022-12-24T01:06:04;18.60;65.00
76878;DHT22;65843;50.692;12.844;2022-12-24T01:07:06;18.60;65.10
76878;DHT22;65843;50.692;12.844;2022-12-24T01:08:06;18.60;65.20
76878;DHT22;65843;50.692;12.844;2022-12-24T01:09:07;18.60;65.10
76878;DHT22;65843;50.692;12.844;2022-12-24T01:10:09;18.60;65.30
76878;DHT22;65843;50.692;12.844;2022-12-24T01:11:11;18.60;65.10
76878;DHT22;65843;50.692;12.844;2022-12-24T01:12:12;18.60;65.30
76878;DHT22;65843;50.692;12.844;2022-12-24T01:13:13;18.60;65.10
76878;DHT22;65843;50.692;12.844;2022-12-24T01:14:13;18.60;65.30
76878;DHT22;65843;50.692;12.844;2022-12-24T01:15:14;18.60;65.00
76878;DHT22;65843;50.692;12.844;2022-12-24T01:16:17;18.60;65.30
76878;DHT22;65843;50.692;12.844;2022-12-24T01:17:18;18.60;65.00
76878;DHT22;65843;50.692;12.844;2022-12-24T01:18:19;18.60;65.40
76878;DHT22;65843;50.692;12.844;2022-12-24T01:19:20;18.60;65.30
76878;DHT22;65843;50.692;12.844;2022-12-24T01:20:21;18.60;65.20
76878;DHT22;65843;50.692;12.844;2022-12-24T01:21:21;18.60;65.20
76878;DHT22;65843;50.692;12.844;2022-12-24T01:22:22;18.60;65.60
76878;DHT22;65843;50.692;12.844;2022-12-24T01:23:23;18.60;65.50
76878;DHT22;65843;50.692;12.844;2022-12-24T01:24:24;18.60;65.60
76878;DHT22;65843;50.692;12.844;2022-12-24T01:25:25;18.60;65.50
76878;DHT22;65843;50.692;12.844;2022-12-24T01:26:26;18.60;65.40
76878;DHT22;65843;50.692;12.844;2022-12-24T01:27:27;18.60;65.40
76878;DHT22;65843;50.692;12.844;2022-12-24T01:28:28;18.60;65.40
76878;DHT22;65843;50.692;12.844;2022-12-24T01:29:29;18.60;65.40
76878;DHT22;65843;50.692;12.844;2022-12-24T01:30:30;18.60;65.20
76878;DHT22;65843;50.692;12.844;2022-12-24T01:31:31;18.60;65.40
76878;DHT22;65843;50.692;12.844;2022-12-24T01:32:31;18.70;65.30
76878;DHT22;65843;50.692;12.844;2022-12-24T01:33:32;18.70;65.20
76878;DHT22;65843;50.692;12.844;2022-12-24T01:34:33;18.70;65.20
76878;DHT22;65843;50.692;12.844;2022-12-24T01:35:37;18.70;65.30
76878;DHT22;65843;50.692;12.844;2022-12-24T01:36:38;18.70;65.40
76878;DHT22;65843;50.692;12.844;2022-12-24T01:37:39;18.70;65.20
76878;DHT22;65843;50.692;12.844;2022-12-24T01:38:41;18.70;65.30
76878;DHT22;65843;50.692;12.844;2022-12-24T01:39:42;18.70;65.00
76878;DHT22;65843;50.692;12.844;2022-12-24T01:40:42;18.70;65.10
76878;DHT22;65843;50.692;12.844;2022-12-24T01:42:09;18.70;65.40
76878;DHT22;65843;50.692;12.844;2022-12-24T01:43:30;18.70;65.60
76878;DHT22;65843;50.692;12.844;2022-12-24T01:44:32;18.70;65.60
76878;DHT22;65843;50.692;12.844;2022-12-24T01:45:38;18.70;65.50
76878;DHT22;65843;50.692;12.844;2022-12-24T01:46:39;18.70;65.60
76878;DHT22;65843;50.692;12.844;2022-12-24T01:47:41;18.70;65.10
76878;DHT22;65843;50.692;12.844;2022-12-24T01:48:48;18.70;65.70
76878;DHT22;65843;50.692;12.844;2022-12-24T01:49:51;18.70;65.70
76878;DHT22;65843;50.692;12.844;2022-12-24T01:50:55;18.70;65.80
76878;DHT22;65843;50.692;12.844;2022-12-24T01:51:59;18.70;65.60
76878;DHT22;65843;50.692;12.844;2022-12-24T01:53:00;18.70;65.60
76878;DHT22;65843;50.692;12.844;2022-12-24T01:54:04;18.70;65.60
76878;DHT22;65843;50.692;12.844;2022-12-24T01:55:06;18.70;65.70
76878;DHT22;65843;50.692;12.844;2022-12-24T01:56:07;18.70;65.70
76878;DHT22;65843;50.692;12.844;2022-12-24T01:57:13;18.70;65.70
76878;DHT22;65843;50.692;12.844;2022-12-24T01:58:15;18.70;65.80
76878;DHT22;65843;50.692;12.844;2022-12-24T01:59:17;18.70;65.80
76878;DHT22;65843;50.692;12.844;2022-12-24T02:00:18;18.70;65.80
76878;DHT22;65843;50.692;12.844;2022-12-24T02:01:19;18.70;65.60
76878;DHT22;65843;50.692;12.844;2022-12-24T02:02:20;18.70;65.60
76878;DHT22;65843;50.692;12.844;2022-12-24T02:03:21;18.70;65.70
76878;DHT22;65843;50.692;12.844;2022-12-24T02:04:24;18.70;65.70
76878;DHT22;65843;50.692;12.844;2022-12-24T02:05:29;18.70;65.80
76878;DHT22;65843;50.692;12.844;2022-12-24T02:06:31;18.70;65.80
76878;DHT22;65843;50.692;12.844;2022-12-24T02:07:32;18.70;65.80
76878;DHT22;65843;50.692;12.844;2022-12-24T02:08:33;18.70;65.40
76878;DHT22;65843;50.692;12.844;2022-12-24T02:09:40;18.70;65.80
76878;DHT22;65843;50.692;12.844;2022-12-24T02:10:42;18.70;65.80
76878;DHT22;65843;50.692;12.844;2022-12-24T02:11:43;18.70;65.80
76878;DHT22;65843;50.692;12.844;2022-12-24T02:12:44;18.70;66.10
76878;DHT22;65843;50.692;12.844;2022-12-24T02:13:50;18.70;66.00
76878;DHT22;65843;50.692;12.844;2022-12-24T02:14:51;18.70;66.00
76878;DHT22;65843;50.692;12.844;2022-12-24T02:18:04;18.70;65.90
76878;DHT22;65843;50.692;12.844;2022-12-24T02:19:14;18.70;66.00
76878;DHT22;65843;50.692;12.844;2022-12-24T02:24:01;18.70;66.20
76878;DHT22;65843;50.692;12.844;2022-12-24T02:26:31;18.70;66.00
76878;DHT22;65843;50.692;12.844;2022-12-24T02:31:31;18.70;66.20
76878;DHT22;65843;50.692;12.844;2022-12-24T02:33:44;18.70;66.10
76878;DHT22;65843;50.692;12.844;2022-12-24T02:34:49;18.70;66.20
76878;DHT22;65843;50.692;12.844;2022-12-24T02:37:12;18.70;66.10
76878;DHT22;65843;50.692;12.844;2022-12-24T02:38:23;18.70;66.10
76878;DHT22;65843;50.692;12.844;2022-12-24T02:39:27;18.70;66.00
76878;DHT22;65843;50.692;12.844;2022-12-24T02:40:35;18.70;66.20
76878;DHT22;65843;50.692;12.844;2022-12-24T02:41:41;18.70;66.00
76878;DHT22;65843;50.692;12.844;2022-12-24T02:43:08;18.70;66.10
76878;DHT22;65843;50.692;12.844;2022-12-24T02:44:10;18.70;66.20
76878;DHT22;65843;50.692;12.844;2022-12-24T02:45:12;18.70;66.20
76878;DHT22;65843;50.692;12.844;2022-12-24T02:46:16;18.70;66.20
76878;DHT22;65843;50.692;12.844;2022-12-24T02:47:17;18.70;66.20
76878;DHT22;65843;50.692;12.844;2022-12-24T02:48:20;18.70;66.10
76878;DHT22;65843;50.692;12.844;2022-12-24T02:49:23;18.70;66.10
76878;DHT22;65843;50.692;12.844;2022-12-24T02:50:24;18.70;66.10
76878;DHT22;65843;50.692;12.844;2022-12-24T02:51:25;18.70;66.10
76878;DHT22;65843;50.692;12.844;2022-12-24T02:52:30;18.70;66.00
76878;DHT22;65843;50.692;12.844;2022-12-24T02:53:31;18.70;66.10
76878;DHT22;65843;50.692;12.844;2022-12-24T02:54:32;18.70;66.30
76878;DHT22;65843;50.692;12.844;2022-12-24T02:56:09;18.70;66.20
76878;DHT22;65843;50.692;12.844;2022-12-24T02:57:13;18.70;66.30
76878;DHT22;65843;50.692;12.844;2022-12-24T03:00:24;18.70;66.40
76878;DHT22;65843;50.692;12.844;2022-12-24T03:01:30;18.70;66.30
76878;DHT22;65843;50.692;12.844;2022-12-24T03:04:09;18.70;66.20
76878;DHT22;65843;50.692;12.844;2022-12-24T03:06:15;18.70;66.00
76878;DHT22;65843;50.692;12.844;2022-12-24T03:11:03;18.70;66.40
76878;DHT22;65843;50.692;12.844;2022-12-24T03:12:11;18.80;66.30
76878;DHT22;65843;50.692;12.844;2022-12-24T03:13:15;18.80;66.40
76878;DHT22;65843;50.692;12.844;2022-12-24T03:14:17;18.80;66.20
76878;DHT22;65843;50.692;12.844;2022-12-24T03:15:18;18.80;66.40
76878;DHT22;65843;50.692;12.844;2022-12-24T03:16:23;18.80;66.40
76878;DHT22;65843;50.692;12.844;2022-12-24T03:17:25;18.80;66.40
76878;DHT22;65843;50.692;12.844;2022-12-24T03:18:26;18.80;66.20
76878;DHT22;65843;50.692;12.844;2022-12-24T03:19:28;18.80;66.40
76878;DHT22;65843;50.692;12.844;2022-12-24T03:20:31;18.80;66.20
76878;DHT22;65843;50.692;12.844;2022-12-24T03:21:34;18.80;66.50
76878;DHT22;65843;50.692;12.844;2022-12-24T03:22:37;18.80;66.20
76878;DHT22;65843;50.692;12.844;2022-12-24T03:23:38;18.80;66.20
76878;DHT22;65843;50.692;12.844;2022-12-24T03:24:39;18.80;66.20
76878;DHT22;65843;50.692;12.844;2022-12-24T03:25:41;18.80;66.40
76878;DHT22;65843;50.692;12.844;2022-12-24T03:26:43;18.80;66.50
76878;DHT22;65843;50.692;12.844;2022-12-24T03:27:44;18.80;66.30
76878;DHT22;65843;50.692;12.844;2022-12-24T03:28:45;18.80;66.00
76878;DHT22;65843;50.692;12.844;2022-12-24T03:29:46;18.80;66.20
76878;DHT22;65843;50.692;12.844;2022-12-24T03:30:47;18.80;66.40
76878;DHT22;65843;50.692;12.844;2022-12-24T03:31:51;18.70;66.40
76878;DHT22;65843;50.692;12.844;2022-12-24T03:32:52;18.70;66.20
76878;DHT22;65843;50.692;12.844;2022-12-24T03:33:52;18.80;66.40
76878;DHT22;65843;50.692;12.844;2022-12-24T03:34:53;18.80;66.40
76878;DHT22;65843;50.692;12.844;2022-12-24T03:35:54;18.80;66.30
76878;DHT22;65843;50.692;12.844;2022-12-24T03:36:55;18.80;66.50
76878;DHT22;65843;50.692;12.844;2022-12-24T03:37:56;18.80;66.30
76878;DHT22;65843;50.692;12.844;2022-12-24T03:38:57;18.80;66.40
76878;DHT22;65843;50.692;12.844;2022-12-24T03:39:58;18.80;66.50
76878;DHT22;65843;50.692;12.844;2022-12-24T03:40:59;18.80;66.30
76878;DHT22;65843;50.692;12.844;2022-12-24T03:42:00;18.80;66.20
76878;DHT22;65843;50.692;12.844;2022-12-24T03:43:01;18.80;66.20
76878;DHT22;65843;50.692;12.844;2022-12-24T03:44:02;18.80;66.50
76878;DHT22;65843;50.692;12.844;2022-12-24T03:45:03;18.80;66.40
76878;DHT22;65843;50.692;12.844;2022-12-24T03:46:06;18.80;67.20
76878;DHT22;65843;50.692;12.844;2022-12-24T03:47:07;18.80;67.10
76878;DHT22;65843;50.692;12.844;2022-12-24T03:48:08;18.80;66.90
76878;DHT22;65843;50.692;12.844;2022-12-24T03:49:08;18.80;66.80
76878;DHT22;65843;50.692;12.844;2022-12-24T03:50:09;18.80;66.80
76878;DHT22;65843;50.692;12.844;2022-12-24T03:51:15;18.80;66.80
76878;DHT22;65843;50.692;12.844;2022-12-24T03:52:17;18.80;66.80
76878;DHT22;65843;50.692;12.844;2022-12-24T03:53:17;18.80;66.70
76878;DHT22;65843;50.692;12.844;2022-12-24T03:54:18;18.80;66.70
76878;DHT22;65843;50.692;12.844;2022-12-24T03:55:19;18.80;66.70
76878;DHT22;65843;50.692;12.844;2022-12-24T03:56:20;18.80;66.70
76878;DHT22;65843;50.692;12.844;2022-12-24T03:57:21;18.80;66.60
76878;DHT22;65843;50.692;12.844;2022-12-24T03:58:22;18.80;66.80
76878;DHT22;65843;50.692;12.844;2022-12-24T03:59:23;18.80;66.70
76878;DHT22;65843;50.692;12.844;2022-12-24T04:00:24;18.80;66.80
76878;DHT22;65843;50.692;12.844;2022-12-24T04:01:25;18.80;66.70
76878;DHT22;65843;50.692;12.844;2022-12-24T04:02:25;18.80;66.90
76878;DHT22;65843;50.692;12.844;2022-12-24T04:03:26;18.80;66.70
76878;DHT22;65843;50.692;12.844;2022-12-24T04:04:27;18.90;66.80
76878;DHT22;65843;50.692;12.844;2022-12-24T04:05:28;18.90;66.70
76878;DHT22;65843;50.692;12.844;2022-12-24T04:06:29;18.90;66.90
76878;DHT22;65843;50.692;12.844;2022-12-24T04:07:30;18.90;66.80
76878;DHT22;65843;50.692;12.844;2022-12-24T04:08:31;18.90;66.80
76878;DHT22;65843;50.692;12.844;2022-12-24T04:09:32;18.90;66.80
76878;DHT22;65843;50.692;12.844;2022-12-24T04:10:33;18.90;66.80
76878;DHT22;65843;50.692;12.844;2022-12-24T04:11:34;18.90;66.70
76878;DHT22;65843;50.692;12.844;2022-12-24T04:12:35;18.90;66.50
76878;DHT22;65843;50.692;12.844;2022-12-24T04:13:36;18.90;66.60
76878;DHT22;65843;50.692;12.844;2022-12-24T04:14:37;18.90;66.70
76878;DHT22;65843;50.692;12.844;2022-12-24T04:15:38;18.90;66.60
76878;DHT22;65843;50.692;12.844;2022-12-24T04:16:39;18.90;66.60
76878;DHT22;65843;50.692;12.844;2022-12-24T04:17:40;18.90;66.60
76878;DHT22;65843;50.692;12.844;2022-12-24T04:18:41;18.90;66.70
76878;DHT22;65843;50.692;12.844;2022-12-24T04:19:41;18.90;66.80
76878;DHT22;65843;50.692;12.844;2022-12-24T04:20:42;18.90;66.80
76878;DHT22;65843;50.692;12.844;2022-12-24T04:21:43;18.90;66.90
76878;DHT22;65843;50.692;12.844;2022-12-24T04:22:44;19.00;67.00
76878;DHT22;65843;50.692;12.844;2022-12-24T04:23:45;19.00;67.10
76878;DHT22;65843;50.692;12.844;2022-12-24T04:24:47;19.00;67.10
76878;DHT22;65843;50.692;12.844;2022-12-24T04:25:48;19.00;66.90
76878;DHT22;65843;50.692;12.844;2022-12-24T04:26:49;19.00;67.00
76878;DHT22;65843;50.692;12.844;2022-12-24T04:27:50;19.00;66.90
76878;DHT22;65843;50.692;12.844;2022-12-24T04:28:50;19.00;67.00
76878;DHT22;65843;50.692;12.844;2022-12-24T04:29:51;19.00;66.90
76878;DHT22;65843;50.692;12.844;2022-12-24T04:30:56;19.00;66.90
76878;DHT22;65843;50.692;12.844;2022-12-24T04:31:57;19.00;66.90
76878;DHT22;65843;50.692;12.844;2022-12-24T04:32:58;19.00;66.90
76878;DHT22;65843;50.692;12.844;2022-12-24T04:33:59;19.00;66.80
76878;DHT22;65843;50.692;12.844;2022-12-24T04:35:00;19.00;66.90
76878;DHT22;65843;50.692;12.844;2022-12-24T04:36:01;19.00;66.90
76878;DHT22;65843;50.692;12.844;2022-12-24T04:37:02;19.00;66.90
76878;DHT22;65843;50.692;12.844;2022-12-24T04:38:03;19.00;67.00
76878;DHT22;65843;50.692;12.844;2022-12-24T04:39:04;19.00;67.00
76878;DHT22;65843;50.692;12.844;2022-12-24T04:40:05;19.00;67.10
76878;DHT22;65843;50.692;12.844;2022-12-24T04:41:07;19.00;67.00
76878;DHT22;65843;50.692;12.844;2022-12-24T04:42:08;19.00;67.00
76878;DHT22;65843;50.692;12.844;2022-12-24T04:43:09;18.90;67.10
76878;DHT22;65843;50.692;12.844;2022-12-24T04:44:10;19.00;67.00
76878;DHT22;65843;50.692;12.844;2022-12-24T04:45:11;18.90;67.00
76878;DHT22;65843;50.692;12.844;2022-12-24T04:46:15;19.00;67.00
76878;DHT22;65843;50.692;12.844;2022-12-24T04:47:19;19.00;67.00
76878;DHT22;65843;50.692;12.844;2022-12-24T04:48:20;19.00;66.80
76878;DHT22;65843;50.692;12.844;2022-12-24T04:49:21;19.00;66.80
76878;DHT22;65843;50.692;12.844;2022-12-24T04:50:21;19.00;67.10
76878;DHT22;65843;50.692;12.844;2022-12-24T04:51:23;19.00;67.10
76878;DHT22;65843;50.692;12.844;2022-12-24T04:52:24;19.00;67.00
76878;DHT22;65843;50.692;12.844;2022-12-24T04:53:24;19.00;67.00
76878;DHT22;65843;50.692;12.844;2022-12-24T04:54:25;19.00;66.90
76878;DHT22;65843;50.692;12.844;2022-12-24T04:55:26;19.00;66.90
76878;DHT22;65843;50.692;12.844;2022-12-24T04:56:28;19.00;66.80
76878;DHT22;65843;50.692;12.844;2022-12-24T04:57:30;19.00;66.80
76878;DHT22;65843;50.692;12.844;2022-12-24T04:58:31;19.00;67.20
76878;DHT22;65843;50.692;12.844;2022-12-24T04:59:32;19.00;67.10
76878;DHT22;65843;50.692;12.844;2022-12-24T05:00:33;19.00;67.10
76878;DHT22;65843;50.692;12.844;2022-12-24T05:01:34;19.00;67.10
76878;DHT22;65843;50.692;12.844;2022-12-24T05:02:35;19.00;67.20
76878;DHT22;65843;50.692;12.844;2022-12-24T05:03:35;19.00;67.80
76878;DHT22;65843;50.692;12.844;2022-12-24T05:04:36;19.00;67.30
76878;DHT22;65843;50.692;12.844;2022-12-24T05:05:37;19.00;67.00
76878;DHT22;65843;50.692;12.844;2022-12-24T05:06:38;19.00;66.30
76878;DHT22;65843;50.692;12.844;2022-12-24T05:07:39;19.00;66.00
76878;DHT22;65843;50.692;12.844;2022-12-24T05:08:40;19.00;63.60
76878;DHT22;65843;50.692;12.844;2022-12-24T05:09:41;19.00;63.80
76878;DHT22;65843;50.692;12.844;2022-12-24T05:10:42;19.00;64.20
76878;DHT22;65843;50.692;12.844;2022-12-24T05:11:43;18.90;64.10
76878;DHT22;65843;50.692;12.844;2022-12-24T05:12:43;18.90;63.70
76878;DHT22;65843;50.692;12.844;2022-12-24T05:13:45;18.90;64.30
76878;DHT22;65843;50.692;12.844;2022-12-24T05:14:46;18.80;64.80
76878;DHT22;65843;50.692;12.844;2022-12-24T05:15:47;18.80;64.80
76878;DHT22;65843;50.692;12.844;2022-12-24T05:16:48;18.80;65.00
76878;DHT22;65843;50.692;12.844;2022-12-24T05:17:49;18.80;64.70
76878;DHT22;65843;50.692;12.844;2022-12-24T05:18:50;18.80;64.00
76878;DHT22;65843;50.692;12.844;2022-12-24T05:19:51;18.80;63.80
76878;DHT22;65843;50.692;12.844;2022-12-24T05:20:52;18.80;62.90
76878;DHT22;65843;50.692;12.844;2022-12-24T05:21:53;18.80;61.70
76878;DHT22;65843;50.692;12.844;2022-12-24T05:23:14;18.80;62.50
76878;DHT22;65843;50.692;12.844;2022-12-24T05:24:34;18.80;62.20
76878;DHT22;65843;50.692;12.844;2022-12-24T05:25:53;18.80;61.70
76878;DHT22;65843;50.692;12.844;2022-12-24T05:27:13;18.70;62.50
76878;DHT22;65843;50.692;12.844;2022-12-24T05:28:14;18.70;62.50
76878;DHT22;65843;50.692;12.844;2022-12-24T05:29:15;18.70;62.40
76878;DHT22;65843;50.692;12.844;2022-12-24T05:30:16;18.70;62.50
76878;DHT22;65843;50.692;12.844;2022-12-24T05:31:17;18.70;62.00
76878;DHT22;65843;50.692;12.844;2022-12-24T05:32:18;18.70;62.00
76878;DHT22;65843;50.692;12.844;2022-12-24T05:33:19;18.70;61.90
76878;DHT22;65843;50.692;12.844;2022-12-24T05:34:20;18.60;61.10
76878;DHT22;65843;50.692;12.844;2022-12-24T05:35:21;18.60;60.50
76878;DHT22;65843;50.692;12.844;2022-12-24T05:36:22;18.60;60.30
76878;DHT22;65843;50.692;12.844;2022-12-24T05:37:23;18.60;60.20
76878;DHT22;65843;50.692;12.844;2022-12-24T05:38:24;18.50;60.00
76878;DHT22;65843;50.692;12.844;2022-12-24T05:39:25;18.50;59.70
76878;DHT22;65843;50.692;12.844;2022-12-24T05:40:25;18.50;59.70
76878;DHT22;65843;50.692;12.844;2022-12-24T05:41:26;18.50;59.30
76878;DHT22;65843;50.692;12.844;2022-12-24T05:42:27;18.40;59.60
76878;DHT22;65843;50.692;12.844;2022-12-24T05:43:28;18.40;59.60
76878;DHT22;65843;50.692;12.844;2022-12-24T05:44:29;18.40;59.40
76878;DHT22;65843;50.692;12.844;2022-12-24T05:45:30;18.30;59.60
76878;DHT22;65843;50.692;12.844;2022-12-24T05:46:31;18.30;59.80
76878;DHT22;65843;50.692;12.844;2022-12-24T05:47:31;18.30;59.90
76878;DHT22;65843;50.692;12.844;2022-12-24T05:48:32;18.30;60.30
76878;DHT22;65843;50.692;12.844;2022-12-24T05:49:33;18.30;59.70
76878;DHT22;65843;50.692;12.844;2022-12-24T05:50:34;18.30;59.80
76878;DHT22;65843;50.692;12.844;2022-12-24T05:51:35;18.30;59.40
76878;DHT22;65843;50.692;12.844;2022-12-24T05:52:36;18.30;59.20
76878;DHT22;65843;50.692;12.844;2022-12-24T05:53:37;18.20;59.20
76878;DHT22;65843;50.692;12.844;2022-12-24T05:54:38;18.20;59.50
76878;DHT22;65843;50.692;12.844;2022-12-24T05:55:39;18.20;59.50
76878;DHT22;65843;50.692;12.844;2022-12-24T05:56:40;18.20;59.30
76878;DHT22;65843;50.692;12.844;2022-12-24T05:57:41;18.20;59.10
76878;DHT22;65843;50.692;12.844;2022-12-24T05:58:42;18.20;58.80
76878;DHT22;65843;50.692;12.844;2022-12-24T05:59:43;18.20;58.70
76878;DHT22;65843;50.692;12.844;2022-12-24T06:00:44;18.20;58.90
76878;DHT22;65843;50.692;12.844;2022-12-24T06:01:45;18.20;58.50
76878;DHT22;65843;50.692;12.844;2022-12-24T06:02:47;18.10;58.90
76878;DHT22;65843;50.692;12.844;2022-12-24T06:03:48;18.10;59.30
76878;DHT22;65843;50.692;12.844;2022-12-24T06:04:49;18.10;59.30
76878;DHT22;65843;50.692;12.844;2022-12-24T06:06:07;18.10;59.00
76878;DHT22;65843;50.692;12.844;2022-12-24T06:07:08;18.20;59.10
76878;DHT22;65843;50.692;12.844;2022-12-24T06:08:08;18.20;58.70
76878;DHT22;65843;50.692;12.844;2022-12-24T06:09:09;18.10;58.70
76878;DHT22;65843;50.692;12.844;2022-12-24T06:10:10;18.10;58.60
76878;DHT22;65843;50.692;12.844;2022-12-24T06:11:12;18.10;58.50
76878;DHT22;65843;50.692;12.844;2022-12-24T06:12:13;18.10;58.30
76878;DHT22;65843;50.692;12.844;2022-12-24T06:13:14;18.10;58.20
76878;DHT22;65843;50.692;12.844;2022-12-24T06:14:15;18.10;58.70
76878;DHT22;65843;50.692;12.844;2022-12-24T06:15:16;18.10;59.10
76878;DHT22;65843;50.692;12.844;2022-12-24T06:16:17;18.10;60.70
76878;DHT22;65843;50.692;12.844;2022-12-24T06:17:18;18.20;61.50
76878;DHT22;65843;50.692;12.844;2022-12-24T06:18:19;18.20;62.00
76878;DHT22;65843;50.692;12.844;2022-12-24T06:19:20;18.20;62.10
76878;DHT22;65843;50.692;12.844;2022-12-24T06:20:21;18.30;62.80
76878;DHT22;65843;50.692;12.844;2022-12-24T06:21:22;18.30;63.00
76878;DHT22;65843;50.692;12.844;2022-12-24T06:22:23;18.30;63.30
76878;DHT22;65843;50.692;12.844;2022-12-24T06:23:24;18.40;63.80
76878;DHT22;65843;50.692;12.844;2022-12-24T06:24:25;18.40;64.00
76878;DHT22;65843;50.692;12.844;2022-12-24T06:25:26;18.50;64.00
76878;DHT22;65843;50.692;12.844;2022-12-24T06:26:27;18.50;63.60
76878;DHT22;65843;50.692;12.844;2022-12-24T06:27:28;18.50;62.30
76878;DHT22;65843;50.692;12.844;2022-12-24T06:28:30;18.50;56.80
76878;DHT22;65843;50.692;12.844;2022-12-24T06:29:31;18.30;55.40
76878;DHT22;65843;50.692;12.844;2022-12-24T06:30:32;18.20;54.10
76878;DHT22;65843;50.692;12.844;2022-12-24T06:31:33;18.00;53.90
76878;DHT22;65843;50.692;12.844;2022-12-24T06:32:34;17.90;52.80
76878;DHT22;65843;50.692;12.844;2022-12-24T06:33:35;17.80;54.10
76878;DHT22;65843;50.692;12.844;2022-12-24T06:34:35;17.60;51.80
76878;DHT22;65843;50.692;12.844;2022-12-24T06:35:36;17.50;52.70
76878;DHT22;65843;50.692;12.844;2022-12-24T06:36:37;17.40;53.70
76878;DHT22;65843;50.692;12.844;2022-12-24T06:37:38;17.30;53.30
76878;DHT22;65843;50.692;12.844;2022-12-24T06:38:39;17.20;53.90
76878;DHT22;65843;50.692;12.844;2022-12-24T06:39:40;17.20;53.00
76878;DHT22;65843;50.692;12.844;2022-12-24T06:40:41;17.00;54.20
76878;DHT22;65843;50.692;12.844;2022-12-24T06:41:42;16.90;53.30
76878;DHT22;65843;50.692;12.844;2022-12-24T06:42:43;16.90;53.20
76878;DHT22;65843;50.692;12.844;2022-12-24T06:43:45;16.80;53.70
76878;DHT22;65843;50.692;12.844;2022-12-24T06:44:46;16.80;55.20
76878;DHT22;65843;50.692;12.844;2022-12-24T06:45:46;16.80;53.40
76878;DHT22;65843;50.692;12.844;2022-12-24T06:46:48;16.80;52.80
76878;DHT22;65843;50.692;12.844;2022-12-24T06:47:48;16.80;52.50